Time;durP1;ratioP1;P1;durP2;ratioP2;P2;SDS_P1;SDS_P2;PMS_P1;PMS_P2;Temp;Humidity;BMP_temperature;BMP_pressure;BME280_temperature;BME280_humidity;BME280_pressure;Samples;Min_cycle;Max_cycle;Signal;HPM_P1;HPM_P2
2022/03/08 00:01:09;;;;;;;19.63;14.17;;;;;;;-3.57;55.70;95992.72;4912464;29;20184;-76
2022/03/08 00:03:34;;;;;;;19.93;14.20;;;;;;;-3.61;55.82;95993.69;4913441;29;20221;-76
2022/03/08 00:06:00;;;;;;;21.80;14.43;;;;;;;-3.56;55.91;95991.81;4913825;29;20187;-76
2022/03/08 00:08:26;;;;;;;19.57;13.47;;;;;;;-3.62;56.15;95982.72;4898270;29;20196;-77
2022/03/08 00:10:51;;;;;;;21.33;14.00;;;;;;;-3.61;55.71;95989.44;4914076;29;20276;-76
2022/03/08 00:13:16;;;;;;;20.63;13.43;;;;;;;-3.62;55.85;95987.78;4914757;29;20201;-76
2022/03/08 00:15:42;;;;;;;21.10;13.97;;;;;;;-3.66;56.22;95988.75;4917888;29;20240;-76
2022/03/08 00:18:07;;;;;;;19.57;13.87;;;;;;;-3.76;56.39;96006.00;4918691;29;20275;-76
2022/03/08 00:20:33;;;;;;;20.50;13.37;;;;;;;-3.89;57.29;96004.72;4917288;29;20206;-76
2022/03/08 00:22:59;;;;;;;20.63;12.63;;;;;;;-3.78;56.81;96005.25;4916816;29;20213;-76
2022/03/08 00:25:24;;;;;;;20.33;14.77;;;;;;;-3.87;56.76;96005.53;4917532;29;20199;-76
2022/03/08 00:27:50;;;;;;;21.87;13.73;;;;;;;-3.92;56.81;96002.31;4918923;29;20186;-75
2022/03/08 00:30:18;;;;;;;19.63;13.13;;;;;;;-3.84;57.06;96010.50;4922279;29;20748;-76
2022/03/08 00:32:44;;;;;;;17.90;12.70;;;;;;;-3.87;56.43;96010.63;4919882;29;20474;-76
2022/03/08 00:35:09;;;;;;;20.23;13.93;;;;;;;-3.93;56.66;96013.34;4901586;29;20186;-78
2022/03/08 00:37:35;;;;;;;20.63;13.83;;;;;;;-3.96;56.66;96010.91;4917738;29;20219;-78
2022/03/08 00:40:02;;;;;;;19.67;14.50;;;;;;;-3.95;56.93;96007.50;4918326;29;20274;-75
2022/03/08 00:42:27;;;;;;;20.30;14.23;;;;;;;-4.00;56.73;96014.41;4917203;29;20210;-77
2022/03/08 00:44:52;;;;;;;19.73;14.23;;;;;;;-3.99;57.25;96003.38;4918274;29;20188;-76
2022/03/08 00:47:18;;;;;;;24.00;13.60;;;;;;;-3.93;57.06;96004.91;4901072;29;20599;-76
2022/03/08 00:49:43;;;;;;;21.03;15.27;;;;;;;-3.95;57.25;96002.41;4918034;29;20198;-77
2022/03/08 00:52:09;;;;;;;20.00;14.10;;;;;;;-3.89;56.85;96001.38;4916442;29;20178;-76
2022/03/08 00:54:35;;;;;;;20.47;13.83;;;;;;;-3.86;56.43;96007.19;4916786;29;20559;-76
2022/03/08 00:57:00;;;;;;;22.10;14.17;;;;;;;-3.82;56.45;96002.84;4901128;29;20319;-76
2022/03/08 00:59:25;;;;;;;21.13;14.83;;;;;;;-3.83;56.86;96001.19;4916726;29;20281;-76
2022/03/08 01:01:51;;;;;;;21.57;15.13;;;;;;;-3.83;56.58;95996.09;4915034;29;20593;-76
2022/03/08 01:04:16;;;;;;;21.73;14.60;;;;;;;-3.88;57.26;95997.97;4901140;29;20210;-76
2022/03/08 01:06:42;;;;;;;19.80;14.73;;;;;;;-3.89;56.55;95997.13;4916996;29;20206;-76
2022/03/08 01:09:07;;;;;;;20.73;14.87;;;;;;;-4.01;57.07;95995.00;4916496;29;20178;-76
2022/03/08 01:11:34;;;;;;;20.07;13.93;;;;;;;-3.92;56.75;95996.41;4900381;29;20274;-77
2022/03/08 01:13:59;;;;;;;21.07;14.00;;;;;;;-3.92;56.96;96002.31;4917613;29;20570;-76
2022/03/08 01:16:24;;;;;;;24.80;14.57;;;;;;;-3.92;57.11;96002.31;4916402;29;20182;-77
2022/03/08 01:18:50;;;;;;;18.93;13.30;;;;;;;-3.99;56.68;95995.75;4905319;29;20198;-76
2022/03/08 01:21:16;;;;;;;24.27;13.83;;;;;;;-3.95;56.74;95996.50;4881581;29;20235;-76
2022/03/08 01:23:42;;;;;;;18.07;12.37;;;;;;;-3.91;56.68;95996.34;4881547;29;20246;-77
2022/03/08 01:26:07;;;;;;;22.80;14.63;;;;;;;-3.89;56.60;96001.38;4897424;29;20234;-77
2022/03/08 01:28:33;;;;;;;19.43;13.67;;;;;;;-3.90;56.63;95995.47;4882971;29;20187;-78
2022/03/08 01:30:58;;;;;;;21.60;14.50;;;;;;;-4.01;57.17;95993.28;4883430;29;20601;-78
2022/03/08 01:33:23;;;;;;;18.77;13.87;;;;;;;-4.11;57.25;95988.56;4881927;29;20254;-76
2022/03/08 01:35:49;;;;;;;17.47;12.60;;;;;;;-4.12;57.83;95980.13;4881629;29;20206;-76
2022/03/08 01:38:14;;;;;;;21.23;13.90;;;;;;;-4.11;57.02;95991.91;4897269;29;20199;-77
2022/03/08 01:40:41;;;;;;;18.37;13.73;;;;;;;-4.11;57.93;95986.03;4917152;29;20207;-76
2022/03/08 01:43:06;;;;;;;23.43;14.57;;;;;;;-4.24;57.79;95985.59;4916567;29;20223;-76
2022/03/08 01:45:34;;;;;;;18.83;13.73;;;;;;;-4.35;58.24;95978.28;4900107;29;20654;-76
2022/03/08 01:47:59;;;;;;;19.40;13.73;;;;;;;-4.34;58.65;95977.41;4917214;29;20178;-76
2022/03/08 01:50:24;;;;;;;20.13;14.53;;;;;;;-4.39;58.80;95974.22;4900249;29;20204;-76
2022/03/08 01:52:50;;;;;;;20.50;14.43;;;;;;;-4.44;58.39;95970.97;4899538;29;20253;-78
2022/03/08 01:55:15;;;;;;;18.93;14.27;;;;;;;-4.43;58.86;95972.63;4900096;29;20572;-76
2022/03/08 01:57:41;;;;;;;21.37;14.23;;;;;;;-4.40;59.41;95974.25;4900061;29;20193;-76
2022/03/08 02:00:09;;;;;;;23.47;14.97;;;;;;;-4.49;58.77;95966.94;4899335;29;20256;-76
2022/03/08 02:02:34;;;;;;;24.27;15.07;;;;;;;-4.54;59.39;95962.00;4884242;29;20638;-76
2022/03/08 02:04:59;;;;;;;20.70;14.57;;;;;;;-4.54;59.81;95967.06;4899753;29;20209;-76
2022/03/08 02:07:25;;;;;;;21.47;14.37;;;;;;;-4.49;59.22;95962.69;4900013;29;20186;-76
2022/03/08 02:09:50;;;;;;;20.63;13.60;;;;;;;-4.49;59.13;95954.25;4899986;29;20667;-76
2022/03/08 02:12:16;;;;;;;20.57;14.23;;;;;;;-4.41;59.03;95963.28;4898930;29;21108;-76
2022/03/08 02:14:44;;;;;;;20.93;13.60;;;;;;;-4.49;59.31;95957.63;4899907;29;20289;-76
2022/03/08 02:17:10;;;;;;;18.40;13.10;;;;;;;-4.47;59.15;95957.56;4915681;29;20536;-76
2022/03/08 02:19:35;;;;;;;23.07;14.17;;;;;;;-4.59;59.32;95952.00;4915398;29;20194;-76
2022/03/08 02:22:00;;;;;;;18.30;13.17;;;;;;;-4.59;59.64;95948.66;4915786;29;20552;-76
2022/03/08 02:24:26;;;;;;;20.87;13.57;;;;;;;-4.51;59.53;95943.31;4902759;29;20213;-76
2022/03/08 02:26:51;;;;;;;18.67;13.47;;;;;;;-4.52;59.42;95944.19;4918529;29;20182;-77
2022/03/08 02:29:17;;;;;;;21.60;14.30;;;;;;;-4.51;59.27;95934.00;4899764;29;20524;-76
2022/03/08 02:31:42;;;;;;;18.97;13.60;;;;;;;-4.43;59.04;95929.53;4893603;29;20190;-77
2022/03/08 02:34:08;;;;;;;18.27;13.23;;;;;;;-4.42;59.14;95923.56;4897959;29;20283;-76
2022/03/08 02:36:33;;;;;;;22.00;14.17;;;;;;;-4.46;58.74;95914.44;4879925;29;20548;-76
2022/03/08 02:38:58;;;;;;;18.33;12.63;;;;;;;-4.44;59.28;95922.81;4880661;29;20547;-76
2022/03/08 02:41:24;;;;;;;16.37;12.10;;;;;;;-4.46;59.39;95919.50;4879872;29;20185;-76
2022/03/08 02:43:49;;;;;;;21.00;14.23;;;;;;;-4.54;59.14;95916.38;4880469;29;20242;-76
2022/03/08 02:46:15;;;;;;;19.50;13.63;;;;;;;-4.49;59.03;95918.78;4897456;29;20194;-78
2022/03/08 02:48:40;;;;;;;18.67;13.07;;;;;;;-4.47;59.22;95917.84;4881013;29;20626;-77
2022/03/08 02:51:05;;;;;;;21.80;14.00;;;;;;;-4.49;59.70;95914.53;4896993;29;20202;-76
2022/03/08 02:53:31;;;;;;;18.87;13.90;;;;;;;-4.51;59.43;95905.28;4864374;29;20207;-76
2022/03/08 02:55:56;;;;;;;20.60;13.00;;;;;;;-4.52;59.11;95909.53;4897405;29;20202;-76
2022/03/08 02:58:21;;;;;;;21.83;13.47;;;;;;;-4.49;59.26;95911.16;4880016;29;20222;-76
2022/03/08 03:00:47;;;;;;;19.37;13.37;;;;;;;-4.56;59.50;95910.53;4896233;29;20233;-76
2022/03/08 03:03:13;;;;;;;18.83;13.03;;;;;;;-4.60;59.80;95911.47;4895067;29;20259;-76
2022/03/08 03:05:38;;;;;;;19.60;13.33;;;;;;;-4.59;59.34;95908.94;4880033;29;20194;-77
2022/03/08 03:08:05;;;;;;;17.33;12.63;;;;;;;-4.66;59.75;95911.69;4895383;29;20187;-77
2022/03/08 03:10:31;;;;;;;17.40;12.50;;;;;;;-4.60;59.31;95902.16;4879985;29;20214;-75
2022/03/08 03:12:57;;;;;;;18.40;13.47;;;;;;;-4.69;59.45;95906.69;4879540;29;20207;-76
2022/03/08 03:15:24;;;;;;;18.27;12.37;;;;;;;-4.75;59.61;95900.13;4880025;29;20194;-77
2022/03/08 03:17:49;;;;;;;22.00;12.87;;;;;;;-4.70;59.86;95900.81;4895428;29;20277;-77
2022/03/08 03:20:20;;;;;;;21.23;13.07;;;;;;;-4.64;59.69;95905.69;4895088;29;20331;-77
2022/03/08 03:22:46;;;;;;;19.50;12.67;;;;;;;-4.70;60.26;95897.44;4902327;29;20281;-77
2022/03/08 03:25:13;;;;;;;17.47;12.57;;;;;;;-4.82;59.90;95897.84;4901906;29;20190;-77
2022/03/08 03:27:38;;;;;;;20.07;12.07;;;;;;;-4.82;60.57;95898.66;4879776;29;20194;-77
2022/03/08 03:30:06;;;;;;;15.73;12.33;;;;;;;-4.82;60.63;95890.22;4879839;29;20186;-78
2022/03/08 03:32:32;;;;;;;19.93;12.93;;;;;;;-4.82;60.06;95888.53;4879049;29;20207;-77
2022/03/08 03:34:58;;;;;;;18.20;12.73;;;;;;;-4.82;60.17;95885.16;4879726;29;20191;-77
2022/03/08 03:37:23;;;;;;;18.43;12.67;;;;;;;-4.84;60.03;95880.16;4879457;29;20208;-77
2022/03/08 03:39:49;;;;;;;20.50;13.00;;;;;;;-4.84;60.01;95877.63;4879705;29;20271;-77
2022/03/08 03:42:15;;;;;;;20.53;13.00;;;;;;;-4.79;60.45;95880.00;4878901;29;20214;-78
2022/03/08 03:44:40;;;;;;;19.73;12.87;;;;;;;-4.89;60.46;95876.91;4879431;29;20652;-76
2022/03/08 03:47:05;;;;;;;18.97;13.47;;;;;;;-4.97;60.24;95867.00;4879563;29;20190;-76
2022/03/08 03:49:31;;;;;;;20.80;12.20;;;;;;;-4.95;60.38;95872.84;4879499;29;20202;-77
2022/03/08 03:51:56;;;;;;;20.00;12.70;;;;;;;-4.91;60.32;95864.31;4894496;29;20289;-77
2022/03/08 03:54:22;;;;;;;19.60;12.43;;;;;;;-4.86;60.57;95874.28;4879396;29;20685;-77
2022/03/08 03:56:47;;;;;;;18.23;12.10;;;;;;;-4.95;60.30;95880.44;4894700;29;20186;-77
2022/03/08 03:59:13;;;;;;;18.33;11.67;;;;;;;-4.94;59.85;95877.06;4879324;29;20190;-77
2022/03/08 04:01:38;;;;;;;19.93;12.10;;;;;;;-4.94;60.12;95877.06;4862585;29;20201;-77
2022/03/08 04:04:03;;;;;;;17.57;12.00;;;;;;;-4.90;60.30;95873.56;4878959;29;20218;-77
2022/03/08 04:06:29;;;;;;;18.93;12.37;;;;;;;-4.89;59.92;95880.28;4879430;29;20218;-77
2022/03/08 04:08:54;;;;;;;18.83;12.13;;;;;;;-4.96;60.16;95883.88;4879372;29;20183;-77
2022/03/08 04:11:19;;;;;;;16.57;11.37;;;;;;;-4.88;59.85;95876.03;4894447;29;20858;-77
2022/03/08 04:13:45;;;;;;;18.43;11.97;;;;;;;-4.93;59.52;95881.25;4879290;29;20687;-77
2022/03/08 04:16:10;;;;;;;19.70;12.60;;;;;;;-4.89;59.47;95877.75;4879365;29;20190;-78
2022/03/08 04:18:35;;;;;;;15.57;11.20;;;;;;;-4.87;59.68;95878.50;4894934;29;20188;-78
2022/03/08 04:21:01;;;;;;;18.90;12.03;;;;;;;-4.97;59.80;95882.22;4895723;29;20198;-77
2022/03/08 04:23:26;;;;;;;18.73;11.20;;;;;;;-5.05;60.11;95884.13;4878737;29;20222;-78
2022/03/08 04:25:51;;;;;;;16.63;11.57;;;;;;;-5.05;60.41;95891.72;4895099;29;20619;-77
2022/03/08 04:28:17;;;;;;;16.60;11.63;;;;;;;-5.10;60.10;95891.06;4879272;29;20656;-77
2022/03/08 04:30:42;;;;;;;18.93;11.70;;;;;;;-5.07;60.36;95892.66;4894630;29;20189;-77
2022/03/08 04:33:07;;;;;;;18.97;11.80;;;;;;;-5.13;60.26;95891.13;4878325;29;20249;-77
2022/03/08 04:35:33;;;;;;;18.23;12.17;;;;;;;-5.19;60.69;95901.47;4878964;29;20183;-77
2022/03/08 04:38:00;;;;;;;15.40;12.00;;;;;;;-5.31;60.78;95889.97;4863431;29;20251;-76
2022/03/08 04:40:25;;;;;;;18.73;11.87;;;;;;;-5.25;60.51;95892.31;4895595;29;20186;-76
2022/03/08 04:42:51;;;;;;;16.93;11.07;;;;;;;-5.32;60.74;95890.00;4878074;29;20266;-76
2022/03/08 04:45:17;;;;;;;15.27;11.30;;;;;;;-5.32;60.91;95892.53;4879103;29;20227;-77
2022/03/08 04:47:43;;;;;;;17.97;12.27;;;;;;;-5.33;61.43;95891.72;4878678;29;20202;-76
2022/03/08 04:50:13;;;;;;;16.43;10.97;;;;;;;-5.29;60.92;95895.00;4895723;29;20195;-76
2022/03/08 04:52:39;;;;;;;18.23;11.63;;;;;;;-5.24;60.45;95898.22;4878381;29;20217;-76
2022/03/08 04:55:04;;;;;;;16.10;11.43;;;;;;;-5.33;60.60;95895.94;4878929;29;20194;-77
2022/03/08 04:57:30;;;;;;;16.00;11.43;;;;;;;-5.39;61.18;95891.06;4878733;29;20183;-77
2022/03/08 04:59:55;;;;;;;18.53;10.77;;;;;;;-5.34;61.22;95884.16;4894925;29;20566;-77
2022/03/08 05:02:20;;;;;;;16.83;11.20;;;;;;;-5.29;60.62;95880.66;4881401;29;20201;-76
2022/03/08 05:04:46;;;;;;;16.30;11.07;;;;;;;-5.31;60.93;95882.38;4882104;29;20191;-76
2022/03/08 05:07:11;;;;;;;15.30;11.57;;;;;;;-5.21;60.88;95882.97;4898851;29;20193;-76
2022/03/08 05:09:36;;;;;;;14.10;10.03;;;;;;;-5.23;60.59;95879.63;4905096;29;20187;-77
2022/03/08 05:12:02;;;;;;;16.43;10.20;;;;;;;-5.16;59.94;95881.09;4881575;29;20670;-76
2022/03/08 05:14:27;;;;;;;17.23;10.90;;;;;;;-5.07;59.19;95868.16;4881960;29;20236;-77
2022/03/08 05:16:53;;;;;;;15.67;9.87;;;;;;;-4.97;58.87;95871.25;4882966;29;20193;-78
2022/03/08 05:19:18;;;;;;;14.60;9.60;;;;;;;-4.94;59.16;95861.88;4882945;29;20233;-77
2022/03/08 05:21:43;;;;;;;15.67;10.30;;;;;;;-4.93;59.56;95858.47;4896215;29;20544;-78
2022/03/08 05:24:09;;;;;;;15.97;10.30;;;;;;;-4.83;58.91;95868.31;4898814;29;20265;-77
2022/03/08 05:26:37;;;;;;;13.90;9.53;;;;;;;-4.81;58.72;95864.84;4899398;29;20191;-77
2022/03/08 05:29:02;;;;;;;11.10;8.50;;;;;;;-4.72;57.93;95866.25;4894124;29;20277;-78
2022/03/08 05:31:28;;;;;;;15.00;10.53;;;;;;;-4.78;58.06;95861.38;4916520;29;20293;-77
2022/03/08 05:33:53;;;;;;;15.57;9.53;;;;;;;-4.82;58.19;95859.81;4915911;29;20210;-76
2022/03/08 05:36:18;;;;;;;15.93;9.33;;;;;;;-4.78;58.29;95856.31;4913493;29;20197;-76
2022/03/08 05:38:43;;;;;;;12.57;9.20;;;;;;;-4.80;58.39;95858.91;4916112;29;20238;-77
2022/03/08 05:41:09;;;;;;;13.83;9.20;;;;;;;-4.73;57.84;95854.47;4901277;29;20200;-78
2022/03/08 05:43:34;;;;;;;15.30;9.73;;;;;;;-4.79;58.47;95859.72;4917007;29;20300;-77
2022/03/08 05:45:59;;;;;;;15.37;9.07;;;;;;;-4.79;58.33;95859.72;4917335;29;20209;-76
2022/03/08 05:48:25;;;;;;;13.53;9.13;;;;;;;-4.85;58.31;95865.81;4900452;29;20195;-76
2022/03/08 05:50:50;;;;;;;12.47;9.20;;;;;;;-4.85;58.43;95866.66;4914205;29;20206;-77
2022/03/08 05:53:15;;;;;;;13.97;9.17;;;;;;;-4.82;58.25;95863.19;4897631;29;20221;-76
2022/03/08 05:55:42;;;;;;;12.90;9.10;;;;;;;-4.80;58.22;95874.09;4897372;29;20202;-76
2022/03/08 05:58:07;;;;;;;12.80;9.27;;;;;;;-4.73;58.30;95869.69;4881867;29;20184;-77
2022/03/08 06:00:32;;;;;;;13.03;9.03;;;;;;;-4.75;58.18;95866.38;4897534;29;20190;-77
2022/03/08 06:02:58;;;;;;;12.23;8.57;;;;;;;-4.73;57.92;95867.97;4897048;29;20218;-78
2022/03/08 06:05:23;;;;;;;12.07;8.50;;;;;;;-4.76;58.34;95862.19;4880980;29;20204;-77
2022/03/08 06:07:49;;;;;;;11.03;8.47;;;;;;;-4.73;58.03;95867.97;4898633;29;20189;-77
2022/03/08 06:10:14;;;;;;;11.57;8.33;;;;;;;-4.62;58.09;95872.69;4898042;29;20222;-77
2022/03/08 06:12:41;;;;;;;16.20;8.70;;;;;;;-4.68;57.69;95870.34;4884232;29;20574;-78
2022/03/08 06:15:07;;;;;;;11.43;9.23;;;;;;;-4.65;57.69;95870.25;4914143;29;20200;-78
2022/03/08 06:17:32;;;;;;;12.47;8.13;;;;;;;-4.64;57.76;95875.28;4918072;29;20196;-78
2022/03/08 06:19:58;;;;;;;13.10;8.30;;;;;;;-4.61;57.69;95879.41;4900447;29;20196;-77
2022/03/08 06:22:23;;;;;;;14.77;8.40;;;;;;;-4.54;57.82;95875.81;4900040;29;20216;-77
2022/03/08 06:24:48;;;;;;;11.17;8.07;;;;;;;-4.51;57.56;95877.41;4916366;29;20820;-78
2022/03/08 06:27:13;;;;;;;11.87;8.17;;;;;;;-4.47;57.52;95881.53;4899229;29;20197;-77
2022/03/08 06:29:39;;;;;;;13.27;9.43;;;;;;;-4.47;57.45;95884.88;4927574;29;20225;-77
2022/03/08 06:32:06;;;;;;;10.67;7.50;;;;;;;-4.46;57.76;95894.16;4900642;29;20659;-78
2022/03/08 06:34:31;;;;;;;11.80;8.20;;;;;;;-4.34;57.22;95903.06;4899237;29;20232;-77
2022/03/08 06:36:56;;;;;;;11.80;8.60;;;;;;;-4.34;57.26;95916.56;4916046;29;20290;-79
2022/03/08 06:39:21;;;;;;;12.50;8.30;;;;;;;-4.27;57.43;95910.41;4899419;29;20189;-78
2022/03/08 06:41:47;;;;;;;12.70;7.53;;;;;;;-4.19;57.37;95922.84;4914310;29;20653;-78
2022/03/08 06:44:12;;;;;;;14.40;8.20;;;;;;;-4.11;56.82;95915.00;4898979;29;20271;-77
2022/03/08 06:46:41;;;;;;;12.87;8.27;;;;;;;-4.02;56.24;95922.31;4899531;29;20183;-77
2022/03/08 06:49:08;;;;;;;11.60;8.83;;;;;;;-3.97;56.65;95920.47;4916560;29;20652;-78
2022/03/08 06:51:34;;;;;;;12.53;7.97;;;;;;;-3.95;56.90;95926.31;4900302;29;20204;-78
2022/03/08 06:53:59;;;;;;;12.57;8.43;;;;;;;-3.82;55.99;95919.91;4916700;29;20212;-78
2022/03/08 06:56:25;;;;;;;10.37;7.60;;;;;;;-3.74;55.89;95924.75;4899898;29;20198;-78
2022/03/08 06:58:50;;;;;;;11.80;8.00;;;;;;;-3.68;55.96;95929.63;4899497;29;20198;-77
2022/03/08 07:01:15;;;;;;;12.13;7.97;;;;;;;-3.58;54.61;95919.97;4916367;29;20202;-78
2022/03/08 07:03:40;;;;;;;11.57;7.40;;;;;;;-3.53;54.96;95930.81;4898782;29;20214;-78
2022/03/08 07:06:06;;;;;;;9.43;7.30;;;;;;;-3.45;55.51;95921.19;4916822;29;20204;-78
2022/03/08 07:08:31;;;;;;;14.93;8.67;;;;;;;-3.39;54.57;95927.75;4901050;29;20224;-77
2022/03/08 07:10:57;;;;;;;11.53;7.63;;;;;;;-3.39;55.24;95931.13;4915466;29;20194;-77
2022/03/08 07:13:22;;;;;;;12.53;7.90;;;;;;;-3.29;54.46;95932.47;4900038;29;20202;-77
2022/03/08 07:15:48;;;;;;;10.43;7.53;;;;;;;-3.21;53.96;95937.25;4899717;29;20194;-79
2022/03/08 07:18:13;;;;;;;11.87;8.30;;;;;;;-3.07;54.44;95944.41;4899778;29;20198;-78
2022/03/08 07:20:38;;;;;;;8.87;7.03;;;;;;;-3.03;53.62;95936.59;4919580;29;20250;-77
2022/03/08 07:23:04;;;;;;;9.57;7.33;;;;;;;-2.94;54.57;95943.06;4901047;29;20317;-77
2022/03/08 07:25:29;;;;;;;8.77;7.20;;;;;;;-2.88;54.03;95935.22;4896181;29;20203;-77
2022/03/08 07:27:55;;;;;;;8.87;7.13;;;;;;;-2.81;53.94;95943.44;4906154;29;20198;-76
2022/03/08 07:30:20;;;;;;;10.73;7.97;;;;;;;-2.75;53.68;95933.03;4904361;29;20203;-77
2022/03/08 07:32:45;;;;;;;8.90;7.10;;;;;;;-2.70;53.94;95937.06;4898709;29;20206;-79
2022/03/08 07:35:11;;;;;;;9.73;7.43;;;;;;;-2.61;53.66;95940.97;4900039;29;20198;-79
2022/03/08 07:37:40;;;;;;;10.80;8.30;;;;;;;-2.54;53.66;95939.84;4904822;29;20213;-79
2022/03/08 07:40:07;;;;;;;10.80;7.47;;;;;;;-2.48;53.64;95941.31;4901932;29;20674;-76
2022/03/08 07:42:32;;;;;;;8.90;6.63;;;;;;;-2.40;53.22;95935.03;4903983;29;20241;-77
2022/03/08 07:44:58;;;;;;;9.63;7.47;;;;;;;-2.33;53.63;95933.91;4899258;29;20221;-77
2022/03/08 07:47:23;;;;;;;12.37;8.03;;;;;;;-2.24;53.56;95937.81;4914000;29;20186;-76
2022/03/08 07:49:48;;;;;;;11.97;7.63;;;;;;;-2.17;53.45;95938.41;4899515;29;20206;-79
2022/03/08 07:52:14;;;;;;;13.47;8.03;;;;;;;-2.05;53.25;95940.44;4915992;29;20240;-78
2022/03/08 07:54:40;;;;;;;9.50;7.67;;;;;;;-1.96;53.38;95954.53;4899330;29;20187;-79
2022/03/08 07:57:05;;;;;;;10.53;7.40;;;;;;;-1.86;53.52;95945.63;4900845;29;20194;-78
2022/03/08 07:59:31;;;;;;;10.83;7.87;;;;;;;-1.75;52.97;95943.47;4907576;29;20191;-78
2022/03/08 08:01:56;;;;;;;11.40;7.47;;;;;;;-1.73;53.09;95946.78;4902474;29;20767;-78
2022/03/08 08:04:23;;;;;;;9.93;7.43;;;;;;;-1.64;52.89;95937.94;4920484;29;20210;-79
2022/03/08 08:06:48;;;;;;;8.67;7.30;;;;;;;-1.58;53.06;95941.06;4910950;29;20337;-78
2022/03/08 08:09:14;;;;;;;9.53;7.80;;;;;;;-1.52;52.89;95948.41;4901656;29;20277;-78
2022/03/08 08:11:39;;;;;;;11.37;7.97;;;;;;;-1.43;53.16;95940.38;4898974;29;20206;-78
2022/03/08 08:14:05;;;;;;;12.67;7.83;;;;;;;-1.39;52.75;95935.16;4901537;29;20210;-79
2022/03/08 08:16:30;;;;;;;10.40;7.33;;;;;;;-1.23;53.47;95937.00;4899627;29;20190;-78
2022/03/08 08:18:58;;;;;;;12.07;7.43;;;;;;;-1.16;53.01;95928.16;4899089;29;20198;-77
2022/03/08 08:21:23;;;;;;;10.07;7.27;;;;;;;-1.10;53.53;95936.44;4910052;29;20187;-79
2022/03/08 08:23:49;;;;;;;9.23;7.00;;;;;;;-0.98;53.42;95930.78;4899007;29;20392;-79
2022/03/08 08:26:14;;;;;;;9.87;7.93;;;;;;;-0.98;53.37;95923.97;4915228;29;20201;-78
2022/03/08 08:28:40;;;;;;;10.80;7.13;;;;;;;-0.84;53.11;95922.53;4913463;29;20620;-79
2022/03/08 08:31:06;;;;;;;10.17;8.37;;;;;;;-0.76;53.08;95921.28;4912928;29;20219;-78
2022/03/08 08:33:31;;;;;;;11.63;8.20;;;;;;;-0.66;53.13;95932.72;4914496;29;20199;-78
2022/03/08 08:35:56;;;;;;;12.07;8.20;;;;;;;-0.55;53.19;95933.94;4907730;29;20234;-78
2022/03/08 08:38:21;;;;;;;9.40;8.13;;;;;;;-0.40;52.49;95923.03;4915202;29;20210;-78
2022/03/08 08:40:47;;;;;;;10.80;7.77;;;;;;;-0.40;52.37;95926.41;4902737;29;20194;-78
2022/03/08 08:43:12;;;;;;;11.87;8.23;;;;;;;-0.46;52.25;95919.03;4902135;29;20215;-78
2022/03/08 08:45:38;;;;;;;11.37;8.03;;;;;;;-0.31;51.99;95920.06;4902934;29;20188;-78
2022/03/08 08:48:04;;;;;;;12.80;8.47;;;;;;;-0.22;52.12;95916.22;4902926;29;20193;-78
2022/03/08 08:50:30;;;;;;;11.93;8.80;;;;;;;-0.17;51.62;95915.13;4887475;29;20197;-78
2022/03/08 08:52:55;;;;;;;10.63;8.63;;;;;;;-0.10;51.75;95915.63;4902020;29;20207;-79
2022/03/08 08:55:24;;;;;;;12.50;8.53;;;;;;;0.01;51.29;95925.34;4902670;29;20204;-79
2022/03/08 08:57:50;;;;;;;15.20;8.70;;;;;;;0.13;51.14;95924.75;4902103;29;20196;-79
2022/03/08 09:00:16;;;;;;;12.70;8.63;;;;;;;0.14;51.29;95924.66;4887030;29;20579;-79
2022/03/08 09:02:43;;;;;;;13.40;9.03;;;;;;;0.30;51.24;95921.34;4901656;29;20244;-79
2022/03/08 09:05:09;;;;;;;11.33;8.40;;;;;;;0.44;51.24;95926.59;4903005;29;20190;-78
2022/03/08 09:07:34;;;;;;;10.33;8.27;;;;;;;0.50;50.42;95931.41;4919573;29;20194;-79
2022/03/08 09:09:59;;;;;;;10.07;7.80;;;;;;;0.51;50.11;95927.94;4903323;29;20266;-79
2022/03/08 09:12:25;;;;;;;12.80;8.80;;;;;;;0.58;50.06;95934.41;4902235;29;20672;-78
2022/03/08 09:14:50;;;;;;;11.53;8.83;;;;;;;0.67;50.14;95928.81;4902538;29;20188;-79
2022/03/08 09:17:15;;;;;;;12.33;8.20;;;;;;;0.79;49.73;95928.19;4919625;29;20202;-79
2022/03/08 09:19:41;;;;;;;12.37;8.10;;;;;;;0.91;49.13;95925.91;4917964;29;20197;-79
2022/03/08 09:22:06;;;;;;;13.33;8.47;;;;;;;0.88;48.75;95931.16;4902153;29;20189;-81
2022/03/08 09:24:35;;;;;;;9.67;8.53;;;;;;;0.91;48.89;95926.72;4901935;29;20211;-79
2022/03/08 09:27:00;;;;;;;11.40;8.33;;;;;;;1.01;49.18;95927.06;4902397;29;20186;-81
2022/03/08 09:29:25;;;;;;;10.80;8.10;;;;;;;1.09;48.90;95933.44;4902549;29;20670;-81
2022/03/08 09:31:52;;;;;;;11.00;8.27;;;;;;;1.25;48.40;95930.91;4917658;29;20204;-80
2022/03/08 09:34:17;;;;;;;8.37;6.70;;;;;;;1.16;47.46;95926.28;4905633;29;20683;-80
2022/03/08 09:36:43;;;;;;;10.40;7.67;;;;;;;1.24;47.24;95919.03;4908897;29;20186;-80
2022/03/08 09:39:08;;;;;;;10.03;7.37;;;;;;;1.30;46.67;95931.47;4915940;29;20225;-81
2022/03/08 09:41:34;;;;;;;12.00;8.10;;;;;;;1.27;46.81;95918.03;4917014;29;20659;-81
2022/03/08 09:43:59;;;;;;;9.73;7.50;;;;;;;1.34;46.45;95925.28;4913090;29;20220;-80
2022/03/08 09:46:25;;;;;;;11.07;8.00;;;;;;;1.43;46.92;95918.84;4928277;29;20188;-81
2022/03/08 09:48:50;;;;;;;10.37;7.37;;;;;;;1.57;46.68;95920.66;4914786;29;20875;-80
2022/03/08 09:51:16;;;;;;;11.30;8.30;;;;;;;1.63;46.02;95916.03;4901743;29;20216;-80
2022/03/08 09:53:43;;;;;;;9.23;7.77;;;;;;;1.65;46.14;95921.06;4918283;29;20251;-79
2022/03/08 09:56:08;;;;;;;12.33;7.67;;;;;;;1.63;45.38;95913.47;4902051;29;20591;-80
2022/03/08 09:58:35;;;;;;;9.17;7.43;;;;;;;1.78;46.07;95921.22;4902327;29;20208;-80
2022/03/08 10:01:00;;;;;;;9.70;7.30;;;;;;;1.74;45.44;95917.16;4919946;29;20189;-80
2022/03/08 10:03:35;;;;;;;8.60;7.40;;;;;;;1.96;45.57;95912.50;4916485;29;20298;-79
2022/03/08 10:06:01;;;;;;;8.90;7.33;;;;;;;1.90;44.55;95905.16;4892117;29;20185;-80
2022/03/08 10:08:26;;;;;;;10.47;7.30;;;;;;;2.17;45.05;95903.59;4906680;29;20206;-79
2022/03/08 10:10:58;;;;;;;8.93;7.60;;;;;;;2.23;44.12;95898.13;4894436;29;20198;-79
2022/03/08 10:13:31;;;;;;;12.07;7.43;;;;;;;2.37;44.01;95902.44;4896072;29;20641;-81
2022/03/08 10:16:48;;;;;;;10.17;7.40;;;;;;;2.51;44.46;95894.78;4881384;29;20763;-79
2022/03/08 10:19:13;;;;;;;9.83;7.03;;;;;;;2.63;44.01;95892.41;4846223;29;20303;-80
2022/03/08 10:21:43;;;;;;;8.90;5.97;;;;;;;2.59;43.05;95890.94;4860474;29;20223;-80
2022/03/08 10:24:16;;;;;;;8.77;6.60;;;;;;;2.49;41.82;95883.78;4855640;29;20224;-80
2022/03/08 10:26:55;;;;;;;10.53;6.50;;;;;;;2.60;41.83;95883.16;4851980;29;20216;-79
2022/03/08 10:29:38;;;;;;;7.27;5.60;;;;;;;2.75;41.84;95887.38;4841258;29;20481;-78
2022/03/08 10:32:16;;;;;;;7.70;5.70;;;;;;;2.86;41.79;95889.28;4841201;29;20182;-80
2022/03/08 10:34:42;;;;;;;10.97;6.27;;;;;;;2.85;41.66;95892.78;4857155;29;20186;-78
2022/03/08 10:37:14;;;;;;;10.57;6.23;;;;;;;2.95;41.02;95886.16;4831556;29;20232;-79
2022/03/08 10:39:56;;;;;;;6.23;5.47;;;;;;;2.93;40.77;95874.38;4825023;29;20259;-79
2022/03/08 10:42:24;;;;;;;6.30;5.43;;;;;;;3.00;40.85;95884.13;4831813;29;20343;-80
2022/03/08 10:44:50;;;;;;;9.07;5.70;;;;;;;3.13;39.64;95881.66;4826109;29;20657;-78
2022/03/08 10:47:16;;;;;;;9.43;6.33;;;;;;;3.21;39.92;95886.31;4826156;29;20207;-80
2022/03/08 10:49:56;;;;;;;7.67;6.13;;;;;;;3.42;39.82;95887.53;4844248;29;20286;-79
2022/03/08 10:52:30;;;;;;;7.80;5.70;;;;;;;3.33;40.01;95885.56;4915206;29;20182;-79
2022/03/08 10:55:17;;;;;;;7.60;5.40;;;;;;;3.51;39.51;95879.28;4903316;29;20190;-79
2022/03/08 10:57:45;;;;;;;13.87;6.80;;;;;;;3.54;40.28;95889.38;4919792;29;20182;-79
2022/03/08 11:00:13;;;;;;;8.03;5.60;;;;;;;3.63;39.06;95875.94;4926457;29;20643;-79
2022/03/08 11:02:55;;;;;;;7.00;5.90;;;;;;;3.68;39.54;95878.22;4913565;29;20238;-80
2022/03/08 11:05:23;;;;;;;8.77;5.87;;;;;;;3.75;39.04;95878.66;4918078;29;20186;-79
2022/03/08 11:07:48;;;;;;;7.60;5.30;;;;;;;3.60;38.38;95876.13;4900079;29;20198;-80
2022/03/08 11:10:15;;;;;;;6.87;6.17;;;;;;;3.86;38.92;95877.03;4901226;29;20179;-80
2022/03/08 11:12:41;;;;;;;7.90;5.47;;;;;;;3.98;38.42;95881.41;4898767;29;20201;-80
2022/03/08 11:15:09;;;;;;;9.53;6.43;;;;;;;3.93;38.21;95877.47;4911103;29;20686;-79
2022/03/08 11:17:36;;;;;;;7.73;6.03;;;;;;;3.78;38.66;95875.88;4889809;29;20183;-80
2022/03/08 11:20:04;;;;;;;12.23;5.93;;;;;;;3.85;38.27;95875.38;4912621;29;20182;-79